createdAt,value
2023-03-24T00:00:24.087Z,12.80
2023-03-24T00:02:51.834Z,12.70
2023-03-24T00:05:21.303Z,12.70
2023-03-24T00:07:54.487Z,12.70
2023-03-24T00:10:22.871Z,12.70
2023-03-24T00:12:51.005Z,12.70
2023-03-24T00:15:21.058Z,12.70
2023-03-24T00:17:50.453Z,12.70
2023-03-24T00:20:20.104Z,12.70
2023-03-24T00:22:51.129Z,12.70
2023-03-24T00:25:23.727Z,12.80
2023-03-24T00:27:51.526Z,12.70
2023-03-24T00:30:19.953Z,12.80
2023-03-24T00:32:47.289Z,12.80
2023-03-24T00:35:16.536Z,12.80
2023-03-24T00:37:44.763Z,12.80
2023-03-24T00:40:17.532Z,12.80
2023-03-24T00:42:46.450Z,12.80
2023-03-24T00:45:19.811Z,12.80
2023-03-24T00:47:50.160Z,12.70
2023-03-24T00:50:21.142Z,12.70
2023-03-24T00:52:49.356Z,12.70
2023-03-24T00:55:17.027Z,12.70
2023-03-24T00:57:52.384Z,12.70
2023-03-24T01:00:25.046Z,12.70
2023-03-24T01:02:55.745Z,12.60
2023-03-24T01:05:28.463Z,12.60
2023-03-24T01:08:03.599Z,12.60
2023-03-24T01:10:34.692Z,12.60
2023-03-24T01:13:02.517Z,12.60
2023-03-24T01:15:33.633Z,12.60
2023-03-24T01:18:04.396Z,12.60
2023-03-24T01:20:35.868Z,12.60
2023-03-24T01:23:07.295Z,12.50
2023-03-24T01:25:37.788Z,12.50
2023-03-24T01:28:05.346Z,12.50
2023-03-24T01:30:32.492Z,12.50
2023-03-24T01:32:59.548Z,12.50
2023-03-24T01:35:29.312Z,12.50
2023-03-24T01:37:57.794Z,12.50
2023-03-24T01:40:31.388Z,12.40
2023-03-24T01:42:59.911Z,12.40
2023-03-24T01:45:39.434Z,12.40
2023-03-24T01:48:10.530Z,12.30
2023-03-24T01:50:38.156Z,12.30
2023-03-24T01:53:07.465Z,12.30
2023-03-24T01:55:34.578Z,12.20
2023-03-24T01:58:03.704Z,12.20
2023-03-24T02:00:45.213Z,12.20
2023-03-24T02:03:42.184Z,12.20
2023-03-24T02:06:10.133Z,12.20
2023-03-24T02:08:52.333Z,12.10
2023-03-24T02:11:21.275Z,12.10
2023-03-24T02:13:52.856Z,12.10
2023-03-24T02:16:20.106Z,12.10
2023-03-24T02:18:54.830Z,12.00
2023-03-24T02:21:36.594Z,12.00
2023-03-24T02:24:24.950Z,12.00
2023-03-24T02:27:13.680Z,12.00
2023-03-24T02:30:02.077Z,11.90
2023-03-24T02:32:44.695Z,11.80
2023-03-24T02:35:42.997Z,11.80
2023-03-24T02:38:15.993Z,11.80
2023-03-24T02:40:49.086Z,11.80
2023-03-24T02:43:37.654Z,11.80
2023-03-24T02:46:08.182Z,11.70
2023-03-24T02:48:47.632Z,11.70
2023-03-24T02:51:29.303Z,11.70
2023-03-24T02:54:09.511Z,11.70
2023-03-24T02:56:56.438Z,11.60
2023-03-24T02:59:52.245Z,11.60
2023-03-24T03:02:48.418Z,11.60
2023-03-24T03:05:43.133Z,11.50
2023-03-24T03:08:14.597Z,11.50
2023-03-24T03:10:46.388Z,11.50
2023-03-24T03:13:25.659Z,11.50
2023-03-24T03:15:56.622Z,11.50
2023-03-24T03:18:50.200Z,11.60
2023-03-24T03:21:22.616Z,11.50
2023-03-24T03:24:02.349Z,11.50
2023-03-24T03:26:32.937Z,11.50
2023-03-24T03:29:09.651Z,11.50
2023-03-24T03:31:50.997Z,11.50
2023-03-24T03:34:37.555Z,11.40
2023-03-24T03:37:19.176Z,11.40
2023-03-24T03:40:00.131Z,11.40
2023-03-24T03:42:29.310Z,11.30
2023-03-24T03:44:56.794Z,11.30
2023-03-24T03:47:24.122Z,11.30
2023-03-24T03:49:51.583Z,11.30
2023-03-24T03:52:19.023Z,11.30
2023-03-24T03:54:48.635Z,11.30
2023-03-24T03:57:16.072Z,11.30
2023-03-24T04:00:11.869Z,11.30
2023-03-24T04:02:53.412Z,11.40
2023-03-24T04:05:26.171Z,11.40
2023-03-24T04:08:23.838Z,11.50
2023-03-24T04:10:56.904Z,11.60
2023-03-24T04:13:42.314Z,11.70
2023-03-24T04:17:00.487Z,11.70
2023-03-24T04:20:00.456Z,11.80
2023-03-24T04:22:54.138Z,11.80
2023-03-24T04:25:56.726Z,11.80
2023-03-24T04:28:31.019Z,11.80
2023-03-24T04:31:16.382Z,11.80
2023-03-24T04:34:05.262Z,11.80
2023-03-24T04:36:44.354Z,11.80
2023-03-24T04:39:29.627Z,11.80
2023-03-24T04:42:05.515Z,11.80
2023-03-24T04:44:33.604Z,11.80
2023-03-24T04:47:25.776Z,11.80
2023-03-24T04:50:11.484Z,11.80
2023-03-24T04:52:40.923Z,11.80
2023-03-24T04:55:37.772Z,11.80
2023-03-24T04:58:04.823Z,11.80
2023-03-24T05:00:32.103Z,11.80
2023-03-24T05:03:00.047Z,11.80
2023-03-24T05:05:28.524Z,11.80
2023-03-24T05:07:56.950Z,11.80
2023-03-24T05:10:24.630Z,11.80
2023-03-24T05:12:55.463Z,11.80
2023-03-24T05:15:46.652Z,11.80
2023-03-24T05:18:28.431Z,11.80
2023-03-24T05:20:57.450Z,11.80
2023-03-24T05:23:25.635Z,11.70
2023-03-24T05:25:53.236Z,11.70
2023-03-24T05:28:22.932Z,11.70
2023-03-24T05:30:51.853Z,11.70
2023-03-24T05:33:41.970Z,11.70
2023-03-24T05:36:13.403Z,11.70
2023-03-24T05:38:42.048Z,11.80
2023-03-24T05:41:09.253Z,11.90
2023-03-24T05:43:40.626Z,11.90
2023-03-24T05:46:11.158Z,11.90
2023-03-24T05:48:38.229Z,11.90
2023-03-24T05:51:16.911Z,11.90
2023-03-24T05:53:45.738Z,11.90
2023-03-24T05:56:15.324Z,12.00
2023-03-24T05:59:00.935Z,12.00
2023-03-24T06:01:48.365Z,12.00
2023-03-24T06:04:31.179Z,12.00
2023-03-24T06:07:05.027Z,12.10
2023-03-24T06:09:40.417Z,12.20
2023-03-24T06:12:09.788Z,12.30
2023-03-24T06:14:40.659Z,12.30
2023-03-24T06:17:16.856Z,12.40
2023-03-24T06:19:49.695Z,12.50
2023-03-24T06:22:37.380Z,12.60
2023-03-24T06:25:09.808Z,12.70
2023-03-24T06:27:37.857Z,12.70
2023-03-24T06:30:06.062Z,12.80
2023-03-24T06:32:33.366Z,12.80
2023-03-24T06:35:00.368Z,12.90
2023-03-24T06:37:45.221Z,12.90
2023-03-24T06:40:16.324Z,13.00
2023-03-24T06:42:50.884Z,13.00
2023-03-24T06:45:18.162Z,13.10
2023-03-24T06:47:47.229Z,13.30
2023-03-24T06:50:14.587Z,13.40
2023-03-24T06:52:41.961Z,13.60
2023-03-24T06:55:11.652Z,13.70
2023-03-24T06:57:38.743Z,13.90
2023-03-24T07:00:41.779Z,14.00
2023-03-24T07:03:25.220Z,14.20
2023-03-24T07:06:11.068Z,14.40
2023-03-24T07:08:38.955Z,14.60
2023-03-24T07:11:08.708Z,14.80
2023-03-24T07:13:38.293Z,15.00
2023-03-24T07:16:05.920Z,15.20
2023-03-24T07:18:36.136Z,15.40
2023-03-24T07:21:06.131Z,15.50
2023-03-24T07:23:34.787Z,15.60
2023-03-24T07:26:10.677Z,15.80
2023-03-24T07:28:56.939Z,15.90
2023-03-24T07:31:51.064Z,16.00
2023-03-24T07:34:18.087Z,16.10
2023-03-24T07:36:45.329Z,16.20
2023-03-24T07:39:16.608Z,16.40
2023-03-24T07:41:43.840Z,16.50
2023-03-24T07:44:25.108Z,16.70
2023-03-24T07:46:53.484Z,16.90
2023-03-24T07:49:21.392Z,17.10
2023-03-24T07:52:06.626Z,17.30
2023-03-24T07:54:39.387Z,17.50
2023-03-24T07:57:09.730Z,17.70
2023-03-24T07:59:38.407Z,17.80
2023-03-24T08:02:19.769Z,18.00
2023-03-24T08:05:05.878Z,18.30
2023-03-24T08:07:55.791Z,18.60
2023-03-24T08:10:25.909Z,18.80
2023-03-24T08:12:53.435Z,19.00
2023-03-24T08:15:21.399Z,19.20
2023-03-24T08:17:49.874Z,19.40
2023-03-24T08:20:19.065Z,19.50
2023-03-24T08:22:49.963Z,19.60
2023-03-24T08:25:19.342Z,19.70
2023-03-24T08:27:47.466Z,19.80
2023-03-24T08:30:17.891Z,19.80
2023-03-24T08:32:51.427Z,19.80
2023-03-24T08:35:21.205Z,19.80
2023-03-24T08:37:48.164Z,19.80
2023-03-24T08:40:20.919Z,19.70
2023-03-24T08:42:50.107Z,19.60
2023-03-24T08:45:21.217Z,19.60
2023-03-24T08:47:50.584Z,19.50
2023-03-24T08:50:19.640Z,19.40
2023-03-24T08:52:49.584Z,19.40
2023-03-24T08:55:18.229Z,19.40
2023-03-24T08:57:45.771Z,19.40
2023-03-24T09:00:16.899Z,19.30
2023-03-24T09:02:45.571Z,19.40
2023-03-24T09:05:15.381Z,19.40
2023-03-24T09:07:42.885Z,19.40
2023-03-24T09:10:11.493Z,19.30
2023-03-24T09:12:39.381Z,19.30
2023-03-24T09:15:08.946Z,19.40
2023-03-24T09:17:36.869Z,19.50
2023-03-24T09:20:08.510Z,19.50
2023-03-24T09:22:46.727Z,19.50
2023-03-24T09:25:21.115Z,19.60
2023-03-24T09:27:48.336Z,19.70
2023-03-24T09:30:17.063Z,19.80
2023-03-24T09:32:45.544Z,20.00
2023-03-24T09:35:13.005Z,20.10
2023-03-24T09:37:40.135Z,20.10
2023-03-24T09:40:07.870Z,20.10
2023-03-24T09:42:38.831Z,20.00
2023-03-24T09:45:15.377Z,20.00
2023-03-24T09:48:21.289Z,20.00
2023-03-24T09:51:11.003Z,20.00
2023-03-24T09:53:46.611Z,20.00
2023-03-24T09:56:19.447Z,20.00
2023-03-24T09:58:52.837Z,20.10
2023-03-24T10:01:20.512Z,20.10
2023-03-24T10:03:47.545Z,20.20
2023-03-24T10:06:26.056Z,20.20
2023-03-24T10:09:16.928Z,20.20
2023-03-24T10:11:52.990Z,20.20
2023-03-24T10:14:25.687Z,20.20
2023-03-24T10:17:11.555Z,20.20
2023-03-24T10:20:02.661Z,20.30
2023-03-24T10:23:02.296Z,20.20
2023-03-24T10:25:41.216Z,20.30
2023-03-24T10:28:11.422Z,20.30
2023-03-24T10:30:44.089Z,20.40
2023-03-24T10:33:13.437Z,20.50
2023-03-24T10:36:02.047Z,20.50
2023-03-24T10:38:29.109Z,20.60
2023-03-24T10:40:56.349Z,20.80
2023-03-24T10:43:26.206Z,21.00
2023-03-24T10:45:55.404Z,21.10
2023-03-24T10:48:43.168Z,21.30
2023-03-24T10:51:19.510Z,21.40
2023-03-24T10:53:48.695Z,21.50
2023-03-24T10:56:39.402Z,21.80
2023-03-24T10:59:28.941Z,22.00
2023-03-24T11:01:59.143Z,22.20
2023-03-24T11:04:27.841Z,22.30
2023-03-24T11:07:08.346Z,22.30
2023-03-24T11:09:47.329Z,22.20
2023-03-24T11:12:29.657Z,22.20
2023-03-24T11:15:21.755Z,22.20
2023-03-24T11:17:57.686Z,22.20
2023-03-24T11:20:37.801Z,22.30
2023-03-24T11:23:19.273Z,22.20
2023-03-24T11:26:07.459Z,22.30
2023-03-24T11:28:40.835Z,22.20
2023-03-24T11:31:10.469Z,22.20
2023-03-24T11:33:46.679Z,22.30
2023-03-24T11:36:34.856Z,22.30
2023-03-24T11:39:10.645Z,22.40
2023-03-24T11:41:40.868Z,22.50
2023-03-24T11:44:23.302Z,22.60
2023-03-24T11:47:04.467Z,22.70
2023-03-24T11:49:34.817Z,22.80
2023-03-24T11:52:03.460Z,22.80
2023-03-24T11:54:35.829Z,22.90
2023-03-24T11:57:13.875Z,22.80
2023-03-24T11:59:58.175Z,22.60
2023-03-24T12:02:34.662Z,22.50
2023-03-24T12:05:26.433Z,22.50
2023-03-24T12:08:08.829Z,22.60
2023-03-24T12:10:55.308Z,22.70
2023-03-24T12:13:39.542Z,22.80
2023-03-24T12:16:25.106Z,22.90
2023-03-24T12:19:06.827Z,22.90
2023-03-24T12:21:48.642Z,22.90
2023-03-24T12:24:21.861Z,22.90
2023-03-24T12:26:53.969Z,23.00
2023-03-24T12:29:39.044Z,23.00
2023-03-24T12:32:35.710Z,23.00
2023-03-24T12:35:28.690Z,23.00
2023-03-24T12:38:08.668Z,23.10
2023-03-24T12:40:47.560Z,23.20
2023-03-24T12:43:43.086Z,23.20
2023-03-24T12:46:47.823Z,23.10
2023-03-24T12:49:30.009Z,23.00
2023-03-24T12:52:32.446Z,23.00
2023-03-24T12:55:25.182Z,23.10
2023-03-24T12:58:02.267Z,23.20
2023-03-24T13:00:33.597Z,23.30
2023-03-24T13:03:31.773Z,23.30
2023-03-24T13:06:16.261Z,23.40
2023-03-24T13:08:49.405Z,23.40
2023-03-24T13:11:32.922Z,23.30
2023-03-24T13:14:04.757Z,23.20
2023-03-24T13:16:36.042Z,23.10
2023-03-24T13:19:03.732Z,23.00
2023-03-24T13:21:35.179Z,23.10
2023-03-24T13:24:14.865Z,23.00
2023-03-24T13:26:57.020Z,23.00
2023-03-24T13:29:49.537Z,23.10
2023-03-24T13:32:23.580Z,23.10
2023-03-24T13:35:28.110Z,23.00
2023-03-24T13:38:05.993Z,22.90
2023-03-24T13:40:40.017Z,22.90
2023-03-24T13:43:13.624Z,22.90
2023-03-24T13:45:47.830Z,22.90
2023-03-24T13:48:27.439Z,22.90
2023-03-24T13:51:17.633Z,23.00
2023-03-24T13:54:00.013Z,23.00
2023-03-24T13:56:35.950Z,23.00
2023-03-24T13:59:03.455Z,23.00
2023-03-24T14:01:35.468Z,23.00
2023-03-24T14:04:43.898Z,23.00
2023-03-24T14:07:33.893Z,23.10
2023-03-24T14:10:22.565Z,23.10
2023-03-24T14:13:12.781Z,23.10
2023-03-24T14:15:55.569Z,23.10
2023-03-24T14:18:25.865Z,23.10
2023-03-24T14:20:56.470Z,23.00
2023-03-24T14:23:46.826Z,23.00
2023-03-24T14:26:34.440Z,22.90
2023-03-24T14:29:01.599Z,22.90
2023-03-24T14:31:34.518Z,22.80
2023-03-24T14:34:25.444Z,22.80
2023-03-24T14:37:01.448Z,22.70
2023-03-24T14:39:32.913Z,22.60
2023-03-24T14:41:59.937Z,22.60
2023-03-24T14:44:49.483Z,22.50
2023-03-24T14:47:19.738Z,22.50
2023-03-24T14:49:48.829Z,22.50
2023-03-24T14:52:27.868Z,22.50
2023-03-24T14:55:02.245Z,22.50
2023-03-24T14:57:32.351Z,22.50
2023-03-24T15:00:12.121Z,22.50
2023-03-24T15:02:48.744Z,22.50
2023-03-24T15:05:29.930Z,22.40
2023-03-24T15:08:21.658Z,22.20
2023-03-24T15:10:53.606Z,22.00
2023-03-24T15:13:38.888Z,21.80
2023-03-24T15:16:11.662Z,21.60
2023-03-24T15:18:59.943Z,21.50
2023-03-24T15:21:41.210Z,21.40
2023-03-24T15:24:27.456Z,21.30
2023-03-24T15:27:08.823Z,21.20
2023-03-24T15:29:38.136Z,21.20
2023-03-24T15:32:06.430Z,21.20
2023-03-24T15:34:46.826Z,21.10
2023-03-24T15:37:47.949Z,21.10
2023-03-24T15:40:27.378Z,21.00
2023-03-24T15:42:56.592Z,21.00
2023-03-24T15:45:31.388Z,20.90
2023-03-24T15:48:03.898Z,20.90
2023-03-24T15:50:53.944Z,20.90
2023-03-24T15:53:26.451Z,20.90
2023-03-24T15:56:11.902Z,21.00
2023-03-24T15:59:07.990Z,21.10
2023-03-24T16:01:39.309Z,21.10
2023-03-24T16:04:15.367Z,21.10
2023-03-24T16:06:48.716Z,21.20
2023-03-24T16:09:21.752Z,21.20
2023-03-24T16:11:48.932Z,21.20
2023-03-24T16:14:30.618Z,21.10
2023-03-24T16:17:00.461Z,21.10
2023-03-24T16:19:28.615Z,21.10
2023-03-24T16:21:55.984Z,21.00
2023-03-24T16:24:23.561Z,20.90
2023-03-24T16:26:50.669Z,20.80
2023-03-24T16:29:20.340Z,20.80
2023-03-24T16:31:50.050Z,20.70
2023-03-24T16:34:21.668Z,20.70
2023-03-24T16:36:50.744Z,20.60
2023-03-24T16:39:21.037Z,20.60
2023-03-24T16:41:48.516Z,20.50
2023-03-24T16:44:17.446Z,20.50
2023-03-24T16:46:46.900Z,20.40
2023-03-24T16:49:18.816Z,20.30
2023-03-24T16:51:46.917Z,20.30
2023-03-24T16:54:14.212Z,20.20
2023-03-24T16:56:41.330Z,20.20
2023-03-24T16:59:09.100Z,20.10
2023-03-24T17:01:41.508Z,20.10
2023-03-24T17:04:16.283Z,20.10
2023-03-24T17:06:54.284Z,20.00
2023-03-24T17:09:22.220Z,19.90
2023-03-24T17:11:55.422Z,19.90
2023-03-24T17:14:22.929Z,19.80
2023-03-24T17:16:52.693Z,19.80
2023-03-24T17:19:22.460Z,19.70
2023-03-24T17:21:57.998Z,19.60
2023-03-24T17:24:25.639Z,19.60
2023-03-24T17:26:52.925Z,19.50
2023-03-24T17:29:19.906Z,19.40
2023-03-24T17:31:46.867Z,19.30
2023-03-24T17:36:44.749Z,19.10
2023-03-24T17:39:16.802Z,19.00
2023-03-24T17:41:43.912Z,18.90
2023-03-24T17:44:11.287Z,18.80
2023-03-24T17:46:38.391Z,18.80
2023-03-24T17:49:05.676Z,18.70
2023-03-24T17:51:32.740Z,18.60
2023-03-24T17:53:59.946Z,18.60
2023-03-24T17:56:26.993Z,18.60
2023-03-24T17:58:55.104Z,18.50
2023-03-24T18:01:23.699Z,18.50
2023-03-24T18:03:50.865Z,18.50
2023-03-24T18:06:17.819Z,18.50
2023-03-24T18:08:45.884Z,18.40
2023-03-24T18:11:15.995Z,18.40
2023-03-24T18:13:43.504Z,18.40
2023-03-24T18:16:20.504Z,18.40
2023-03-24T18:18:49.723Z,18.40
2023-03-24T18:21:17.586Z,18.30
2023-03-24T18:23:46.562Z,18.30
2023-03-24T18:26:14.459Z,18.30
2023-03-24T18:28:42.562Z,18.20
2023-03-24T18:31:12.800Z,18.20
2023-03-24T18:33:42.748Z,18.20
2023-03-24T18:36:10.815Z,18.10
2023-03-24T18:38:38.081Z,18.10
2023-03-24T18:41:07.257Z,18.00
2023-03-24T18:43:37.575Z,17.90
2023-03-24T18:46:09.479Z,17.80
2023-03-24T18:48:39.598Z,17.80
2023-03-24T18:51:06.875Z,17.70
2023-03-24T18:53:34.554Z,17.60
2023-03-24T18:56:02.009Z,17.60
2023-03-24T18:58:29.113Z,17.50
2023-03-24T19:00:57.405Z,17.40
2023-03-24T19:03:26.343Z,17.40
2023-03-24T19:05:53.413Z,17.30
2023-03-24T19:08:21.699Z,17.20
2023-03-24T19:10:49.702Z,17.20
2023-03-24T19:13:17.174Z,17.10
2023-03-24T19:15:48.606Z,17.10
2023-03-24T19:18:15.992Z,17.10
2023-03-24T19:20:43.170Z,17.10
2023-03-24T19:23:10.043Z,17.00
2023-03-24T19:25:37.140Z,16.90
2023-03-24T19:28:04.120Z,16.80
2023-03-24T19:30:31.403Z,16.80
2023-03-24T19:32:58.329Z,16.80
2023-03-24T19:35:25.484Z,16.90
2023-03-24T19:37:53.405Z,16.90
2023-03-24T19:40:20.473Z,17.00
2023-03-24T19:42:47.577Z,17.00
2023-03-24T19:45:16.965Z,17.00
2023-03-24T19:47:45.986Z,17.00
2023-03-24T19:50:14.984Z,17.00
2023-03-24T19:52:43.257Z,17.00
2023-03-24T19:55:10.934Z,17.00
2023-03-24T19:57:37.889Z,17.00
2023-03-24T20:00:08.982Z,17.00
2023-03-24T20:02:37.571Z,17.00
2023-03-24T20:05:05.101Z,16.90
2023-03-24T20:07:32.242Z,16.90
2023-03-24T20:09:59.880Z,16.90
2023-03-24T20:12:27.795Z,16.90
2023-03-24T20:14:55.619Z,16.90
2023-03-24T20:17:26.451Z,16.90
2023-03-24T20:19:54.300Z,16.90
2023-03-24T20:22:22.084Z,16.80
2023-03-24T20:24:49.270Z,16.80
2023-03-24T20:27:17.169Z,16.70
2023-03-24T20:29:45.891Z,16.70
2023-03-24T20:32:13.292Z,16.60
2023-03-24T20:34:40.714Z,16.60
2023-03-24T20:37:08.275Z,16.60
2023-03-24T20:39:35.403Z,16.50
2023-03-24T20:42:02.739Z,16.50
2023-03-24T20:44:29.686Z,16.40
2023-03-24T20:47:00.818Z,16.40
2023-03-24T20:49:27.936Z,16.30
2023-03-24T20:51:55.035Z,16.20
2023-03-24T20:54:22.296Z,16.10
2023-03-24T20:56:52.624Z,16.10
2023-03-24T20:59:19.782Z,16.00
2023-03-24T21:01:48.747Z,15.90
2023-03-24T21:04:18.227Z,15.90
2023-03-24T21:06:46.088Z,15.80
2023-03-24T21:09:13.344Z,15.70
2023-03-24T21:11:40.409Z,15.70
2023-03-24T21:14:07.386Z,15.60
2023-03-24T21:16:37.519Z,15.60
2023-03-24T21:19:05.330Z,15.60
2023-03-24T21:21:32.576Z,15.50
2023-03-24T21:24:00.569Z,15.40
2023-03-24T21:26:28.112Z,15.40
2023-03-24T21:28:55.142Z,15.40
2023-03-24T21:31:28.498Z,15.30
2023-03-24T21:33:56.905Z,15.20
2023-03-24T21:36:25.356Z,15.10
2023-03-24T21:38:54.122Z,15.10
2023-03-24T21:41:22.969Z,15.00
2023-03-24T21:43:54.226Z,14.90
2023-03-24T21:46:23.528Z,14.90
2023-03-24T21:48:55.509Z,14.80
2023-03-24T21:51:25.384Z,14.80
2023-03-24T21:53:55.799Z,14.70
2023-03-24T21:56:23.499Z,14.80
2023-03-24T21:58:54.537Z,14.80
2023-03-24T22:01:22.310Z,14.70
2023-03-24T22:03:51.025Z,14.70
2023-03-24T22:06:18.012Z,14.70
2023-03-24T22:08:48.866Z,14.80
2023-03-24T22:11:18.499Z,14.80
2023-03-24T22:13:46.544Z,14.80
2023-03-24T22:16:14.525Z,14.80
2023-03-24T22:18:41.714Z,14.80
2023-03-24T22:21:10.553Z,14.80
2023-03-24T22:23:40.499Z,14.80
2023-03-24T22:26:10.384Z,14.80
2023-03-24T22:28:38.216Z,14.80
2023-03-24T22:31:25.601Z,14.80
2023-03-24T22:33:52.616Z,14.80
2023-03-24T22:36:19.601Z,14.80
2023-03-24T22:38:46.715Z,14.70
2023-03-24T22:41:13.899Z,14.70
2023-03-24T22:43:41.875Z,14.70
2023-03-24T22:46:10.157Z,14.60
2023-03-24T22:48:38.985Z,14.60
2023-03-24T22:51:06.709Z,14.60
2023-03-24T22:53:33.768Z,14.50
2023-03-24T22:56:00.809Z,14.50
2023-03-24T22:58:27.849Z,14.50
2023-03-24T23:00:56.779Z,14.40
2023-03-24T23:03:23.850Z,14.40
2023-03-24T23:05:51.934Z,14.40
2023-03-24T23:08:19.310Z,14.40
2023-03-24T23:10:47.511Z,14.30
2023-03-24T23:13:16.942Z,14.30
2023-03-24T23:15:47.878Z,14.30
2023-03-24T23:18:15.685Z,14.30
2023-03-24T23:20:42.963Z,14.30
2023-03-24T23:23:10.199Z,14.40
2023-03-24T23:25:43.247Z,14.40
2023-03-24T23:28:11.658Z,14.40
2023-03-24T23:30:40.061Z,14.40
2023-03-24T23:33:07.126Z,14.40
2023-03-24T23:35:34.246Z,14.40
2023-03-24T23:38:02.406Z,14.30
2023-03-24T23:40:29.425Z,14.30
2023-03-24T23:42:56.385Z,14.30
2023-03-24T23:45:23.411Z,14.20
2023-03-24T23:47:51.667Z,14.20
2023-03-24T23:50:19.729Z,14.20
2023-03-24T23:52:46.817Z,14.20
2023-03-24T23:55:17.825Z,14.20
2023-03-24T23:57:46.817Z,14.20
